sensor_id;sensor_type;location;lat;lon;timestamp;pressure;altitude;pressure_sealevel;temperature;humidity
14067;BME280;7108;42.684;23.350;2023-11-18T00:02:19;94677.56;;;6.91;100.00
14067;BME280;7108;42.684;23.350;2023-11-18T00:04:44;94657.81;;;6.80;100.00
14067;BME280;7108;42.684;23.350;2023-11-18T00:07:10;94676.88;;;6.94;100.00
14067;BME280;7108;42.684;23.350;2023-11-18T00:09:35;94650.56;;;6.65;100.00
14067;BME280;7108;42.684;23.350;2023-11-18T00:12:02;94674.38;;;6.86;100.00
14067;BME280;7108;42.684;23.350;2023-11-18T00:14:29;94659.19;;;6.74;100.00
14067;BME280;7108;42.684;23.350;2023-11-18T00:16:54;94690.59;;;6.77;100.00
14067;BME280;7108;42.684;23.350;2023-11-18T00:19:20;94677.06;;;6.70;100.00
14067;BME280;7108;42.684;23.350;2023-11-18T00:21:45;94664.47;;;6.55;100.00
14067;BME280;7108;42.684;23.350;2023-11-18T00:24:11;94695.63;;;6.63;100.00
14067;BME280;7108;42.684;23.350;2023-11-18T00:26:36;94702.09;;;6.62;100.00
14067;BME280;7108;42.684;23.350;2023-11-18T00:29:02;94680.50;;;6.40;100.00
14067;BME280;7108;42.684;23.350;2023-11-18T00:31:27;94687.84;;;6.58;100.00
14067;BME280;7108;42.684;23.350;2023-11-18T00:33:53;94641.59;;;6.43;100.00
14067;BME280;7108;42.684;23.350;2023-11-18T00:36:18;94662.06;;;6.51;100.00
14067;BME280;7108;42.684;23.350;2023-11-18T00:38:43;94679.22;;;6.65;100.00
14067;BME280;7108;42.684;23.350;2023-11-18T00:41:09;94655.66;;;6.55;100.00
14067;BME280;7108;42.684;23.350;2023-11-18T00:43:35;94645.22;;;6.35;100.00
14067;BME280;7108;42.684;23.350;2023-11-18T00:46:00;94677.59;;;6.60;100.00
14067;BME280;7108;42.684;23.350;2023-11-18T00:48:26;94683.22;;;6.55;100.00
14067;BME280;7108;42.684;23.350;2023-11-18T00:50:52;94683.28;;;6.59;100.00
14067;BME280;7108;42.684;23.350;2023-11-18T00:53:17;94689.06;;;6.61;100.00
14067;BME280;7108;42.684;23.350;2023-11-18T00:55:43;94685.44;;;6.53;100.00
14067;BME280;7108;42.684;23.350;2023-11-18T00:58:09;94669.38;;;6.38;100.00
14067;BME280;7108;42.684;23.350;2023-11-18T01:00:34;94638.72;;;6.20;100.00
14067;BME280;7108;42.684;23.350;2023-11-18T01:03:01;94696.16;;;6.53;100.00
14067;BME280;7108;42.684;23.350;2023-11-18T01:05:27;94664.19;;;6.30;100.00
14067;BME280;7108;42.684;23.350;2023-11-18T01:07:52;94706.66;;;6.47;100.00
14067;BME280;7108;42.684;23.350;2023-11-18T01:10:18;94694.91;;;6.36;100.00
14067;BME280;7108;42.684;23.350;2023-11-18T01:12:44;94681.63;;;6.24;100.00
14067;BME280;7108;42.684;23.350;2023-11-18T01:15:10;94698.38;;;6.36;100.00
14067;BME280;7108;42.684;23.350;2023-11-18T01:17:36;94701.91;;;6.40;100.00
14067;BME280;7108;42.684;23.350;2023-11-18T01:20:02;94694.13;;;6.35;100.00
14067;BME280;7108;42.684;23.350;2023-11-18T01:22:33;94703.88;;;6.28;100.00
14067;BME280;7108;42.684;23.350;2023-11-18T01:25:00;94693.34;;;6.19;100.00
14067;BME280;7108;42.684;23.350;2023-11-18T01:27:26;94722.34;;;6.33;100.00
14067;BME280;7108;42.684;23.350;2023-11-18T01:29:52;94704.31;;;6.30;100.00
14067;BME280;7108;42.684;23.350;2023-11-18T01:32:18;94689.19;;;6.22;100.00
14067;BME280;7108;42.684;23.350;2023-11-18T01:34:44;94690.41;;;6.09;100.00
14067;BME280;7108;42.684;23.350;2023-11-18T01:37:15;94699.78;;;6.03;100.00
14067;BME280;7108;42.684;23.350;2023-11-18T01:39:41;94717.13;;;6.09;100.00
14067;BME280;7108;42.684;23.350;2023-11-18T01:42:06;94695.09;;;6.00;100.00
14067;BME280;7108;42.684;23.350;2023-11-18T01:44:32;94703.41;;;6.10;100.00
14067;BME280;7108;42.684;23.350;2023-11-18T01:46:59;94713.16;;;6.18;100.00
14067;BME280;7108;42.684;23.350;2023-11-18T01:49:31;94697.97;;;6.07;100.00
14067;BME280;7108;42.684;23.350;2023-11-18T01:51:57;94707.91;;;6.06;100.00
14067;BME280;7108;42.684;23.350;2023-11-18T01:54:24;94704.94;;;5.96;100.00
14067;BME280;7108;42.684;23.350;2023-11-18T01:56:51;94714.84;;;5.95;100.00
14067;BME280;7108;42.684;23.350;2023-11-18T01:59:17;94701.00;;;5.78;100.00
14067;BME280;7108;42.684;23.350;2023-11-18T02:01:50;94708.44;;;5.85;100.00
14067;BME280;7108;42.684;23.350;2023-11-18T02:04:16;94669.66;;;5.51;100.00
14067;BME280;7108;42.684;23.350;2023-11-18T02:06:45;94696.66;;;5.62;100.00
14067;BME280;7108;42.684;23.350;2023-11-18T02:09:12;94686.13;;;5.53;100.00
14067;BME280;7108;42.684;23.350;2023-11-18T02:11:45;94707.22;;;5.70;100.00
14067;BME280;7108;42.684;23.350;2023-11-18T02:14:14;94716.81;;;5.59;100.00
14067;BME280;7108;42.684;23.350;2023-11-18T02:16:42;94688.84;;;5.41;100.00
14067;BME280;7108;42.684;23.350;2023-11-18T02:19:19;94685.25;;;5.37;100.00
14067;BME280;7108;42.684;23.350;2023-11-18T02:21:47;94694.84;;;5.38;100.00
14067;BME280;7108;42.684;23.350;2023-11-18T02:24:45;94705.75;;;5.45;100.00
14067;BME280;7108;42.684;23.350;2023-11-18T02:27:11;94698.94;;;5.48;100.00
14067;BME280;7108;42.684;23.350;2023-11-18T02:29:41;94698.50;;;5.46;100.00
14067;BME280;7108;42.684;23.350;2023-11-18T02:32:30;94692.69;;;5.56;100.00
14067;BME280;7108;42.684;23.350;2023-11-18T02:35:20;94664.09;;;5.44;100.00
14067;BME280;7108;42.684;23.350;2023-11-18T02:37:50;94676.78;;;5.47;100.00
14067;BME280;7108;42.684;23.350;2023-11-18T02:40:31;94673.91;;;5.40;100.00
14067;BME280;7108;42.684;23.350;2023-11-18T02:42:59;94690.84;;;5.32;100.00
14067;BME280;7108;42.684;23.350;2023-11-18T02:45:26;94708.09;;;5.35;100.00
14067;BME280;7108;42.684;23.350;2023-11-18T02:47:52;94720.88;;;5.41;100.00
14067;BME280;7108;42.684;23.350;2023-11-18T02:50:26;94697.00;;;5.21;100.00
14067;BME280;7108;42.684;23.350;2023-11-18T02:52:53;94686.31;;;5.09;100.00
14067;BME280;7108;42.684;23.350;2023-11-18T02:55:18;94679.56;;;5.00;100.00
14067;BME280;7108;42.684;23.350;2023-11-18T02:57:47;94710.47;;;5.01;100.00
14067;BME280;7108;42.684;23.350;2023-11-18T03:00:13;94702.69;;;4.96;100.00
14067;BME280;7108;42.684;23.350;2023-11-18T03:02:50;94727.38;;;5.05;100.00
14067;BME280;7108;42.684;23.350;2023-11-18T03:05:19;94695.78;;;4.71;100.00
14067;BME280;7108;42.684;23.350;2023-11-18T03:07:46;94732.94;;;5.00;100.00
14067;BME280;7108;42.684;23.350;2023-11-18T03:10:15;94721.16;;;4.89;100.00
14067;BME280;7108;42.684;23.350;2023-11-18T03:12:53;94741.63;;;5.09;100.00
14067;BME280;7108;42.684;23.350;2023-11-18T03:15:19;94745.59;;;4.91;100.00
14067;BME280;7108;42.684;23.350;2023-11-18T03:17:45;94757.59;;;4.85;100.00
14067;BME280;7108;42.684;23.350;2023-11-18T03:20:13;94744.72;;;4.75;100.00
14067;BME280;7108;42.684;23.350;2023-11-18T03:22:45;94741.72;;;4.76;100.00
14067;BME280;7108;42.684;23.350;2023-11-18T03:25:14;94767.06;;;4.82;100.00
14067;BME280;7108;42.684;23.350;2023-11-18T03:27:40;94773.50;;;4.69;100.00
14067;BME280;7108;42.684;23.350;2023-11-18T03:30:07;94782.97;;;4.79;100.00
14067;BME280;7108;42.684;23.350;2023-11-18T03:32:37;94779.31;;;4.71;100.00
14067;BME280;7108;42.684;23.350;2023-11-18T03:35:06;94753.16;;;4.53;100.00
14067;BME280;7108;42.684;23.350;2023-11-18T03:37:42;94785.63;;;4.67;100.00
14067;BME280;7108;42.684;23.350;2023-11-18T03:40:09;94763.47;;;4.54;100.00
14067;BME280;7108;42.684;23.350;2023-11-18T03:42:35;94761.91;;;4.53;100.00
14067;BME280;7108;42.684;23.350;2023-11-18T03:45:02;94785.38;;;4.60;100.00
14067;BME280;7108;42.684;23.350;2023-11-18T03:47:28;94782.84;;;4.63;100.00
14067;BME280;7108;42.684;23.350;2023-11-18T03:49:53;94797.63;;;4.73;100.00
14067;BME280;7108;42.684;23.350;2023-11-18T03:52:21;94793.63;;;4.67;100.00
14067;BME280;7108;42.684;23.350;2023-11-18T03:54:47;94791.41;;;4.69;100.00
14067;BME280;7108;42.684;23.350;2023-11-18T03:57:12;94773.94;;;4.59;100.00
14067;BME280;7108;42.684;23.350;2023-11-18T03:59:41;94764.03;;;4.48;100.00
14067;BME280;7108;42.684;23.350;2023-11-18T04:02:07;94761.91;;;4.53;100.00
14067;BME280;7108;42.684;23.350;2023-11-18T04:04:33;94761.16;;;4.53;100.00
14067;BME280;7108;42.684;23.350;2023-11-18T04:06:58;94781.34;;;4.54;100.00
14067;BME280;7108;42.684;23.350;2023-11-18T04:09:26;94766.22;;;4.46;100.00
14067;BME280;7108;42.684;23.350;2023-11-18T04:11:51;94765.34;;;4.42;100.00
14067;BME280;7108;42.684;23.350;2023-11-18T04:14:17;94793.38;;;4.48;100.00
14067;BME280;7108;42.684;23.350;2023-11-18T04:16:45;94772.41;;;4.26;100.00
14067;BME280;7108;42.684;23.350;2023-11-18T04:19:10;94778.16;;;4.16;100.00
14067;BME280;7108;42.684;23.350;2023-11-18T04:21:35;94797.03;;;4.23;100.00
14067;BME280;7108;42.684;23.350;2023-11-18T04:24:01;94794.97;;;4.29;100.00
14067;BME280;7108;42.684;23.350;2023-11-18T04:26:26;94790.41;;;4.29;100.00
14067;BME280;7108;42.684;23.350;2023-11-18T04:28:52;94789.72;;;4.20;100.00
14067;BME280;7108;42.684;23.350;2023-11-18T04:31:17;94781.72;;;4.20;100.00
14067;BME280;7108;42.684;23.350;2023-11-18T04:33:43;94765.50;;;3.93;100.00
14067;BME280;7108;42.684;23.350;2023-11-18T04:36:09;94785.28;;;4.24;100.00
14067;BME280;7108;42.684;23.350;2023-11-18T04:38:35;94807.22;;;4.42;100.00
14067;BME280;7108;42.684;23.350;2023-11-18T04:41:01;94788.63;;;4.21;100.00
14067;BME280;7108;42.684;23.350;2023-11-18T04:43:29;94776.72;;;4.19;100.00
14067;BME280;7108;42.684;23.350;2023-11-18T04:45:55;94819.16;;;4.24;100.00
14067;BME280;7108;42.684;23.350;2023-11-18T04:48:21;94807.63;;;4.32;100.00
14067;BME280;7108;42.684;23.350;2023-11-18T04:50:46;94801.72;;;4.26;100.00
14067;BME280;7108;42.684;23.350;2023-11-18T04:53:12;94752.13;;;3.81;100.00
14067;BME280;7108;42.684;23.350;2023-11-18T04:55:38;94790.38;;;4.17;100.00
14067;BME280;7108;42.684;23.350;2023-11-18T04:58:03;94803.25;;;4.15;100.00
14067;BME280;7108;42.684;23.350;2023-11-18T05:00:31;94809.88;;;4.09;100.00
14067;BME280;7108;42.684;23.350;2023-11-18T05:02:57;94808.03;;;4.22;100.00
14067;BME280;7108;42.684;23.350;2023-11-18T05:05:23;94812.81;;;4.16;100.00
14067;BME280;7108;42.684;23.350;2023-11-18T05:07:48;94807.34;;;4.13;100.00
14067;BME280;7108;42.684;23.350;2023-11-18T05:10:14;94760.06;;;3.89;100.00
14067;BME280;7108;42.684;23.350;2023-11-18T05:12:39;94786.22;;;4.08;100.00
14067;BME280;7108;42.684;23.350;2023-11-18T05:15:06;94782.19;;;4.02;100.00
14067;BME280;7108;42.684;23.350;2023-11-18T05:17:36;94769.44;;;4.07;100.00
14067;BME280;7108;42.684;23.350;2023-11-18T05:20:07;94790.94;;;4.23;100.00
14067;BME280;7108;42.684;23.350;2023-11-18T05:22:36;94790.94;;;4.23;100.00
14067;BME280;7108;42.684;23.350;2023-11-18T05:25:02;94771.41;;;3.98;100.00
14067;BME280;7108;42.684;23.350;2023-11-18T05:27:30;94793.66;;;4.35;100.00
14067;BME280;7108;42.684;23.350;2023-11-18T05:29:56;94772.63;;;4.21;100.00
14067;BME280;7108;42.684;23.350;2023-11-18T05:32:26;94768.44;;;4.32;100.00
14067;BME280;7108;42.684;23.350;2023-11-18T05:34:52;94786.72;;;4.22;100.00
14067;BME280;7108;42.684;23.350;2023-11-18T05:37:19;94787.09;;;4.32;100.00
14067;BME280;7108;42.684;23.350;2023-11-18T05:39:45;94801.69;;;4.14;100.00
14067;BME280;7108;42.684;23.350;2023-11-18T05:42:11;94749.00;;;3.79;100.00
14067;BME280;7108;42.684;23.350;2023-11-18T05:44:38;94795.19;;;4.03;100.00
14067;BME280;7108;42.684;23.350;2023-11-18T05:47:08;94801.78;;;3.86;100.00
14067;BME280;7108;42.684;23.350;2023-11-18T05:49:37;94773.00;;;3.59;100.00
14067;BME280;7108;42.684;23.350;2023-11-18T05:52:03;94771.09;;;3.59;100.00
14067;BME280;7108;42.684;23.350;2023-11-18T05:54:29;94781.50;;;3.73;100.00
14067;BME280;7108;42.684;23.350;2023-11-18T05:56:54;94771.63;;;3.73;100.00
14067;BME280;7108;42.684;23.350;2023-11-18T05:59:19;94790.19;;;3.82;100.00
14067;BME280;7108;42.684;23.350;2023-11-18T06:01:47;94772.75;;;3.72;100.00
14067;BME280;7108;42.684;23.350;2023-11-18T06:04:13;94765.72;;;3.68;100.00
14067;BME280;7108;42.684;23.350;2023-11-18T06:06:38;94778.84;;;3.73;100.00
14067;BME280;7108;42.684;23.350;2023-11-18T06:09:04;94782.28;;;3.73;100.00
14067;BME280;7108;42.684;23.350;2023-11-18T06:11:40;94785.50;;;3.58;100.00
14067;BME280;7108;42.684;23.350;2023-11-18T06:14:06;94752.47;;;3.39;100.00
14067;BME280;7108;42.684;23.350;2023-11-18T06:16:33;94792.06;;;3.61;100.00
14067;BME280;7108;42.684;23.350;2023-11-18T06:19:01;94798.50;;;3.80;100.00
14067;BME280;7108;42.684;23.350;2023-11-18T06:21:30;94771.75;;;3.56;100.00
14067;BME280;7108;42.684;23.350;2023-11-18T06:23:57;94806.19;;;3.82;100.00
14067;BME280;7108;42.684;23.350;2023-11-18T06:26:23;94813.72;;;3.80;100.00
14067;BME280;7108;42.684;23.350;2023-11-18T06:28:55;94791.25;;;3.69;100.00
14067;BME280;7108;42.684;23.350;2023-11-18T06:31:21;94778.72;;;3.49;100.00
14067;BME280;7108;42.684;23.350;2023-11-18T06:33:49;94790.53;;;3.80;100.00
14067;BME280;7108;42.684;23.350;2023-11-18T06:38:40;94802.19;;;3.76;100.00
14067;BME280;7108;42.684;23.350;2023-11-18T06:41:07;94782.28;;;3.53;100.00
14067;BME280;7108;42.684;23.350;2023-11-18T06:43:37;94790.59;;;3.72;100.00
14067;BME280;7108;42.684;23.350;2023-11-18T06:48:51;94795.19;;;3.63;100.00
14067;BME280;7108;42.684;23.350;2023-11-18T06:51:23;94799.81;;;3.74;100.00
14067;BME280;7108;42.684;23.350;2023-11-18T06:53:58;94835.81;;;3.80;100.00
14067;BME280;7108;42.684;23.350;2023-11-18T06:56:25;94823.72;;;3.83;100.00
14067;BME280;7108;42.684;23.350;2023-11-18T06:58:50;94828.53;;;3.89;100.00
14067;BME280;7108;42.684;23.350;2023-11-18T07:01:16;94823.09;;;3.86;100.00
14067;BME280;7108;42.684;23.350;2023-11-18T07:03:42;94801.25;;;3.72;100.00
14067;BME280;7108;42.684;23.350;2023-11-18T07:06:08;94834.53;;;3.86;100.00
14067;BME280;7108;42.684;23.350;2023-11-18T07:08:37;94810.53;;;3.66;100.00
14067;BME280;7108;42.684;23.350;2023-11-18T07:11:03;94817.88;;;3.69;100.00
14067;BME280;7108;42.684;23.350;2023-11-18T07:13:48;94843.28;;;3.66;100.00
14067;BME280;7108;42.684;23.350;2023-11-18T07:16:24;94807.34;;;3.52;100.00
14067;BME280;7108;42.684;23.350;2023-11-18T07:18:50;94835.16;;;3.63;100.00
14067;BME280;7108;42.684;23.350;2023-11-18T07:21:16;94841.38;;;3.67;100.00
14067;BME280;7108;42.684;23.350;2023-11-18T07:23:42;94812.63;;;3.60;100.00
14067;BME280;7108;42.684;23.350;2023-11-18T07:26:08;94842.63;;;3.69;100.00
14067;BME280;7108;42.684;23.350;2023-11-18T07:28:35;94811.50;;;3.61;100.00
14067;BME280;7108;42.684;23.350;2023-11-18T07:31:01;94845.44;;;3.73;100.00
14067;BME280;7108;42.684;23.350;2023-11-18T07:33:30;94813.91;;;3.54;100.00
14067;BME280;7108;42.684;23.350;2023-11-18T07:35:59;94822.50;;;3.60;100.00
14067;BME280;7108;42.684;23.350;2023-11-18T07:38:25;94835.09;;;3.71;100.00
14067;BME280;7108;42.684;23.350;2023-11-18T07:40:52;94825.41;;;3.67;100.00
14067;BME280;7108;42.684;23.350;2023-11-18T07:43:22;94832.91;;;3.73;100.00
14067;BME280;7108;42.684;23.350;2023-11-18T07:45:48;94841.84;;;3.89;100.00
14067;BME280;7108;42.684;23.350;2023-11-18T07:48:18;94853.84;;;3.83;100.00
14067;BME280;7108;42.684;23.350;2023-11-18T07:50:46;94839.72;;;3.83;100.00
14067;BME280;7108;42.684;23.350;2023-11-18T07:53:13;94828.25;;;3.62;100.00
14067;BME280;7108;42.684;23.350;2023-11-18T07:55:39;94856.09;;;3.73;100.00
14067;BME280;7108;42.684;23.350;2023-11-18T07:58:08;94800.25;;;3.56;100.00
14067;BME280;7108;42.684;23.350;2023-11-18T08:00:38;94826.00;;;3.72;100.00
14067;BME280;7108;42.684;23.350;2023-11-18T08:03:05;94827.72;;;3.48;100.00
14067;BME280;7108;42.684;23.350;2023-11-18T08:05:36;94822.41;;;3.48;100.00
14067;BME280;7108;42.684;23.350;2023-11-18T08:08:02;94840.94;;;3.65;100.00
14067;BME280;7108;42.684;23.350;2023-11-18T08:10:28;94837.97;;;3.66;100.00
14067;BME280;7108;42.684;23.350;2023-11-18T08:12:58;94834.88;;;3.56;100.00
14067;BME280;7108;42.684;23.350;2023-11-18T08:15:23;94849.31;;;3.55;100.00
14067;BME280;7108;42.684;23.350;2023-11-18T08:17:52;94834.88;;;3.56;100.00
14067;BME280;7108;42.684;23.350;2023-11-18T08:20:18;94850.19;;;3.67;100.00
14067;BME280;7108;42.684;23.350;2023-11-18T08:22:46;94826.84;;;3.64;100.00
14067;BME280;7108;42.684;23.350;2023-11-18T08:25:12;94826.44;;;3.74;100.00
14067;BME280;7108;42.684;23.350;2023-11-18T08:27:39;94852.13;;;3.79;100.00
14067;BME280;7108;42.684;23.350;2023-11-18T08:30:06;94842.44;;;3.74;100.00
14067;BME280;7108;42.684;23.350;2023-11-18T08:32:39;94838.34;;;3.77;100.00
14067;BME280;7108;42.684;23.350;2023-11-18T08:35:07;94825.16;;;3.60;100.00
14067;BME280;7108;42.684;23.350;2023-11-18T08:37:34;94862.91;;;3.82;100.00
14067;BME280;7108;42.684;23.350;2023-11-18T08:40:04;94849.78;;;3.77;100.00
14067;BME280;7108;42.684;23.350;2023-11-18T08:42:32;94821.50;;;3.64;100.00
14067;BME280;7108;42.684;23.350;2023-11-18T08:44:59;94812.56;;;3.69;100.00
14067;BME280;7108;42.684;23.350;2023-11-18T08:47:26;94824.84;;;3.61;100.00
14067;BME280;7108;42.684;23.350;2023-11-18T08:49:52;94824.34;;;3.59;100.00
14067;BME280;7108;42.684;23.350;2023-11-18T08:52:17;94864.94;;;3.85;100.00
14067;BME280;7108;42.684;23.350;2023-11-18T08:54:43;94869.81;;;3.83;100.00
14067;BME280;7108;42.684;23.350;2023-11-18T08:57:29;94850.13;;;3.76;100.00
14067;BME280;7108;42.684;23.350;2023-11-18T09:00:14;94853.97;;;3.58;100.00
14067;BME280;7108;42.684;23.350;2023-11-18T09:03:03;94858.75;;;3.73;100.00
14067;BME280;7108;42.684;23.350;2023-11-18T09:05:34;94840.66;;;3.58;100.00
14067;BME280;7108;42.684;23.350;2023-11-18T09:08:02;94851.31;;;3.58;100.00
14067;BME280;7108;42.684;23.350;2023-11-18T09:10:31;94870.06;;;3.70;100.00
14067;BME280;7108;42.684;23.350;2023-11-18T09:12:57;94890.56;;;3.69;100.00
14067;BME280;7108;42.684;23.350;2023-11-18T09:15:23;94841.63;;;3.53;100.00
14067;BME280;7108;42.684;23.350;2023-11-18T09:17:49;94866.59;;;3.69;100.00
14067;BME280;7108;42.684;23.350;2023-11-18T09:20:15;94864.34;;;3.80;100.00
14067;BME280;7108;42.684;23.350;2023-11-18T09:22:50;94859.66;;;3.77;100.00
14067;BME280;7108;42.684;23.350;2023-11-18T09:25:21;94841.06;;;3.68;100.00
14067;BME280;7108;42.684;23.350;2023-11-18T09:27:47;94832.97;;;3.65;100.00
14067;BME280;7108;42.684;23.350;2023-11-18T09:30:13;94824.03;;;3.61;100.00
14067;BME280;7108;42.684;23.350;2023-11-18T09:32:42;94851.41;;;3.70;100.00
14067;BME280;7108;42.684;23.350;2023-11-18T09:35:08;94864.06;;;3.73;100.00
14067;BME280;7108;42.684;23.350;2023-11-18T09:37:39;94827.63;;;3.65;100.00
14067;BME280;7108;42.684;23.350;2023-11-18T09:40:07;94844.84;;;3.88;100.00
14067;BME280;7108;42.684;23.350;2023-11-18T09:42:39;94818.06;;;3.64;100.00
14067;BME280;7108;42.684;23.350;2023-11-18T09:45:05;94824.78;;;3.70;100.00
14067;BME280;7108;42.684;23.350;2023-11-18T09:47:42;94843.59;;;3.85;100.00
14067;BME280;7108;42.684;23.350;2023-11-18T09:50:10;94859.69;;;3.97;100.00
14067;BME280;7108;42.684;23.350;2023-11-18T09:52:42;94826.00;;;3.92;100.00
14067;BME280;7108;42.684;23.350;2023-11-18T09:55:15;94800.41;;;3.80;100.00
14067;BME280;7108;42.684;23.350;2023-11-18T09:57:51;94815.75;;;3.83;100.00
14067;BME280;7108;42.684;23.350;2023-11-18T10:00:23;94829.31;;;3.89;100.00
14067;BME280;7108;42.684;23.350;2023-11-18T10:02:53;94845.44;;;3.93;100.00
14067;BME280;7108;42.684;23.350;2023-11-18T10:05:21;94836.09;;;3.87;100.00
14067;BME280;7108;42.684;23.350;2023-11-18T10:07:52;94841.41;;;3.87;100.00
14067;BME280;7108;42.684;23.350;2023-11-18T10:10:18;94842.66;;;3.89;100.00
14067;BME280;7108;42.684;23.350;2023-11-18T10:12:50;94856.09;;;3.93;100.00
14067;BME280;7108;42.684;23.350;2023-11-18T10:15:23;94830.91;;;3.62;100.00
14067;BME280;7108;42.684;23.350;2023-11-18T10:17:50;94832.44;;;3.71;100.00
14067;BME280;7108;42.684;23.350;2023-11-18T10:20:51;94842.66;;;3.89;100.00
14067;BME280;7108;42.684;23.350;2023-11-18T10:23:18;94860.63;;;3.92;100.00
14067;BME280;7108;42.684;23.350;2023-11-18T10:25:48;94864.72;;;3.90;100.00
14067;BME280;7108;42.684;23.350;2023-11-18T10:28:27;94850.75;;;3.73;100.00
14067;BME280;7108;42.684;23.350;2023-11-18T10:30:55;94864.88;;;3.93;100.00
14067;BME280;7108;42.684;23.350;2023-11-18T10:33:25;94841.84;;;3.69;100.00
14067;BME280;7108;42.684;23.350;2023-11-18T10:35:56;94835.63;;;3.65;100.00
14067;BME280;7108;42.684;23.350;2023-11-18T10:38:22;94867.88;;;3.92;100.00
14067;BME280;7108;42.684;23.350;2023-11-18T10:40:54;94814.38;;;3.77;100.00
14067;BME280;7108;42.684;23.350;2023-11-18T10:43:22;94842.94;;;3.68;100.00
14067;BME280;7108;42.684;23.350;2023-11-18T10:46:10;94835.81;;;3.80;100.00
14067;BME280;7108;42.684;23.350;2023-11-18T10:51:07;94825.63;;;3.82;100.00
14067;BME280;7108;42.684;23.350;2023-11-18T10:53:32;94807.41;;;3.84;100.00
14067;BME280;7108;42.684;23.350;2023-11-18T10:55:58;94851.97;;;4.04;100.00
14067;BME280;7108;42.684;23.350;2023-11-18T10:58:23;94835.16;;;4.03;100.00
14067;BME280;7108;42.684;23.350;2023-11-18T11:00:51;94851.69;;;3.97;100.00
14067;BME280;7108;42.684;23.350;2023-11-18T11:03:21;94819.06;;;3.80;100.00
14067;BME280;7108;42.684;23.350;2023-11-18T11:05:49;94823.81;;;3.94;100.00
14067;BME280;7108;42.684;23.350;2023-11-18T11:08:15;94816.97;;;3.85;100.00
14067;BME280;7108;42.684;23.350;2023-11-18T11:10:42;94804.63;;;3.81;100.00
14067;BME280;7108;42.684;23.350;2023-11-18T11:13:09;94809.84;;;3.77;100.00
14067;BME280;7108;42.684;23.350;2023-11-18T11:15:42;94845.88;;;3.95;100.00
14067;BME280;7108;42.684;23.350;2023-11-18T11:18:12;94829.38;;;3.81;100.00
14067;BME280;7108;42.684;23.350;2023-11-18T11:23:30;94813.19;;;3.86;100.00
14067;BME280;7108;42.684;23.350;2023-11-18T11:28:42;94797.94;;;3.75;100.00
14067;BME280;7108;42.684;23.350;2023-11-18T11:34:16;94821.91;;;3.95;100.00
14067;BME280;7108;42.684;23.350;2023-11-18T11:36:48;94819.63;;;3.85;100.00
14067;BME280;7108;42.684;23.350;2023-11-18T11:39:17;94809.78;;;3.86;100.00
14067;BME280;7108;42.684;23.350;2023-11-18T11:41:50;94799.22;;;3.89;100.00
14067;BME280;7108;42.684;23.350;2023-11-18T11:44:16;94836.16;;;3.99;100.00
14067;BME280;7108;42.684;23.350;2023-11-18T11:46:46;94827.44;;;3.90;100.00
14067;BME280;7108;42.684;23.350;2023-11-18T11:49:19;94825.09;;;3.88;100.00
14067;BME280;7108;42.684;23.350;2023-11-18T11:52:11;94796.69;;;3.92;100.00
14067;BME280;7108;42.684;23.350;2023-11-18T11:54:51;94821.28;;;3.98;100.00
14067;BME280;7108;42.684;23.350;2023-11-18T11:57:22;94789.03;;;3.91;100.00
14067;BME280;7108;42.684;23.350;2023-11-18T12:02:23;94808.91;;;3.93;100.00
14067;BME280;7108;42.684;23.350;2023-11-18T12:04:51;94833.59;;;4.02;100.00
14067;BME280;7108;42.684;23.350;2023-11-18T12:07:25;94827.97;;;4.04;100.00
14067;BME280;7108;42.684;23.350;2023-11-18T12:09:59;94813.25;;;3.78;100.00
14067;BME280;7108;42.684;23.350;2023-11-18T12:12:26;94838.22;;;3.93;100.00
14067;BME280;7108;42.684;23.350;2023-11-18T12:14:54;94831.03;;;3.94;100.00
14067;BME280;7108;42.684;23.350;2023-11-18T12:17:23;94820.38;;;3.94;100.00
14067;BME280;7108;42.684;23.350;2023-11-18T12:19:50;94832.16;;;4.05;100.00
14067;BME280;7108;42.684;23.350;2023-11-18T12:22:23;94792.84;;;3.82;100.00
14067;BME280;7108;42.684;23.350;2023-11-18T12:32:58;94808.34;;;3.88;100.00
14067;BME280;7108;42.684;23.350;2023-11-18T12:35:24;94804.75;;;3.84;100.00
14067;BME280;7108;42.684;23.350;2023-11-18T12:40:54;94831.13;;;4.18;100.00
14067;BME280;7108;42.684;23.350;2023-11-18T12:43:47;94856.88;;;4.14;100.00
14067;BME280;7108;42.684;23.350;2023-11-18T12:52:12;94799.13;;;3.86;100.00
14067;BME280;7108;42.684;23.350;2023-11-18T12:54:44;94823.28;;;4.01;100.00
14067;BME280;7108;42.684;23.350;2023-11-18T12:57:10;94829.31;;;4.10;100.00
14067;BME280;7108;42.684;23.350;2023-11-18T12:59:39;94771.75;;;3.77;100.00
14067;BME280;7108;42.684;23.350;2023-11-18T13:02:11;94834.59;;;3.98;100.00
14067;BME280;7108;42.684;23.350;2023-11-18T13:04:43;94793.25;;;3.92;100.00
14067;BME280;7108;42.684;23.350;2023-11-18T13:07:15;94813.31;;;4.10;100.00
14067;BME280;7108;42.684;23.350;2023-11-18T13:09:43;94791.88;;;3.86;100.00
14067;BME280;7108;42.684;23.350;2023-11-18T13:12:10;94826.97;;;4.08;100.00
14067;BME280;7108;42.684;23.350;2023-11-18T13:14:41;94839.72;;;4.03;100.00
14067;BME280;7108;42.684;23.350;2023-11-18T13:17:12;94826.00;;;3.92;100.00
14067;BME280;7108;42.684;23.350;2023-11-18T13:19:43;94758.19;;;3.70;100.00
14067;BME280;7108;42.684;23.350;2023-11-18T13:22:12;94803.72;;;3.97;100.00
14067;BME280;7108;42.684;23.350;2023-11-18T13:24:40;94806.13;;;3.90;100.00
14067;BME280;7108;42.684;23.350;2023-11-18T13:27:16;94839.03;;;3.94;100.00
14067;BME280;7108;42.684;23.350;2023-11-18T13:29:46;94824.13;;;3.73;100.00
14067;BME280;7108;42.684;23.350;2023-11-18T13:32:17;94851.16;;;3.83;100.00
14067;BME280;7108;42.684;23.350;2023-11-18T13:34:42;94828.59;;;3.60;100.00
14067;BME280;7108;42.684;23.350;2023-11-18T13:37:08;94855.66;;;3.71;100.00
14067;BME280;7108;42.684;23.350;2023-11-18T13:39:34;94857.59;;;3.82;100.00
14067;BME280;7108;42.684;23.350;2023-11-18T13:42:20;94844.63;;;3.52;100.00
14067;BME280;7108;42.684;23.350;2023-11-18T13:44:46;94861.78;;;3.63;100.00